sensor_id;sensor_type;location;lat;lon;timestamp;P1;durP1;ratioP1;P2;durP2;ratioP2
17414;SDS011;8825;48.086;16.426;2022-12-18T00:01:27;11.28;;;9.05;;
17414;SDS011;8825;48.086;16.426;2022-12-18T00:04:01;11.65;;;9.33;;
17414;SDS011;8825;48.086;16.426;2022-12-18T00:06:31;11.88;;;9.15;;
17414;SDS011;8825;48.086;16.426;2022-12-18T00:08:59;9.98;;;8.33;;
17414;SDS011;8825;48.086;16.426;2022-12-18T00:11:28;9.68;;;8.28;;
17414;SDS011;8825;48.086;16.426;2022-12-18T00:13:58;9.93;;;8.53;;
17414;SDS011;8825;48.086;16.426;2022-12-18T00:16:27;9.38;;;7.75;;
17414;SDS011;8825;48.086;16.426;2022-12-18T00:18:59;10.75;;;8.13;;
17414;SDS011;8825;48.086;16.426;2022-12-18T00:21:27;9.25;;;8.25;;
17414;SDS011;8825;48.086;16.426;2022-12-18T00:23:56;10.00;;;8.30;;
17414;SDS011;8825;48.086;16.426;2022-12-18T00:26:28;9.60;;;8.23;;
17414;SDS011;8825;48.086;16.426;2022-12-18T00:29:01;9.10;;;7.72;;
17414;SDS011;8825;48.086;16.426;2022-12-18T00:31:33;11.83;;;8.25;;
17414;SDS011;8825;48.086;16.426;2022-12-18T00:34:02;8.53;;;7.62;;
17414;SDS011;8825;48.086;16.426;2022-12-18T00:36:31;8.95;;;7.85;;
17414;SDS011;8825;48.086;16.426;2022-12-18T00:39:01;9.08;;;8.18;;
17414;SDS011;8825;48.086;16.426;2022-12-18T00:41:30;10.90;;;8.70;;
17414;SDS011;8825;48.086;16.426;2022-12-18T00:44:16;8.50;;;7.40;;
17414;SDS011;8825;48.086;16.426;2022-12-18T00:46:45;9.40;;;7.95;;
17414;SDS011;8825;48.086;16.426;2022-12-18T00:49:15;8.25;;;7.40;;
17414;SDS011;8825;48.086;16.426;2022-12-18T00:51:43;8.33;;;7.05;;
17414;SDS011;8825;48.086;16.426;2022-12-18T00:54:11;9.40;;;8.03;;
17414;SDS011;8825;48.086;16.426;2022-12-18T00:56:39;7.87;;;7.08;;
17414;SDS011;8825;48.086;16.426;2022-12-18T00:59:06;8.13;;;7.33;;
17414;SDS011;8825;48.086;16.426;2022-12-18T01:01:34;8.68;;;7.78;;
17414;SDS011;8825;48.086;16.426;2022-12-18T01:04:02;9.18;;;7.85;;
17414;SDS011;8825;48.086;16.426;2022-12-18T01:06:30;9.15;;;8.18;;
17414;SDS011;8825;48.086;16.426;2022-12-18T01:08:57;9.23;;;8.18;;
17414;SDS011;8825;48.086;16.426;2022-12-18T01:11:25;9.90;;;8.23;;
17414;SDS011;8825;48.086;16.426;2022-12-18T01:13:53;9.90;;;8.43;;
17414;SDS011;8825;48.086;16.426;2022-12-18T01:16:21;8.90;;;7.83;;
17414;SDS011;8825;48.086;16.426;2022-12-18T01:18:54;11.30;;;9.03;;
17414;SDS011;8825;48.086;16.426;2022-12-18T01:21:20;10.38;;;8.03;;
17414;SDS011;8825;48.086;16.426;2022-12-18T01:23:53;8.90;;;7.53;;
17414;SDS011;8825;48.086;16.426;2022-12-18T01:26:19;7.72;;;6.87;;
17414;SDS011;8825;48.086;16.426;2022-12-18T01:28:46;7.87;;;6.90;;
17414;SDS011;8825;48.086;16.426;2022-12-18T01:31:15;8.23;;;7.42;;
17414;SDS011;8825;48.086;16.426;2022-12-18T01:33:45;9.53;;;7.75;;
17414;SDS011;8825;48.086;16.426;2022-12-18T01:36:21;9.48;;;7.97;;
17414;SDS011;8825;48.086;16.426;2022-12-18T01:38:46;9.33;;;8.35;;
17414;SDS011;8825;48.086;16.426;2022-12-18T01:41:15;10.75;;;8.88;;
17414;SDS011;8825;48.086;16.426;2022-12-18T01:43:51;9.38;;;8.00;;
17414;SDS011;8825;48.086;16.426;2022-12-18T01:46:22;10.32;;;9.10;;
17414;SDS011;8825;48.086;16.426;2022-12-18T01:48:51;10.60;;;8.70;;
17414;SDS011;8825;48.086;16.426;2022-12-18T01:51:21;11.08;;;9.30;;
17414;SDS011;8825;48.086;16.426;2022-12-18T01:53:49;10.55;;;8.78;;
17414;SDS011;8825;48.086;16.426;2022-12-18T01:56:17;12.10;;;10.10;;
17414;SDS011;8825;48.086;16.426;2022-12-18T01:59:03;12.03;;;9.90;;
17414;SDS011;8825;48.086;16.426;2022-12-18T02:01:32;11.28;;;10.08;;
17414;SDS011;8825;48.086;16.426;2022-12-18T02:07:11;11.38;;;10.00;;
17414;SDS011;8825;48.086;16.426;2022-12-18T02:09:28;11.75;;;10.28;;
17414;SDS011;8825;48.086;16.426;2022-12-18T02:14:49;12.82;;;10.13;;
17414;SDS011;8825;48.086;16.426;2022-12-18T02:17:16;11.83;;;10.08;;
17414;SDS011;8825;48.086;16.426;2022-12-18T02:28:04;13.95;;;10.70;;
17414;SDS011;8825;48.086;16.426;2022-12-18T02:30:35;13.88;;;10.70;;
17414;SDS011;8825;48.086;16.426;2022-12-18T02:33:06;13.13;;;11.00;;
17414;SDS011;8825;48.086;16.426;2022-12-18T02:35:35;14.73;;;11.22;;
17414;SDS011;8825;48.086;16.426;2022-12-18T02:38:05;12.93;;;11.30;;
17414;SDS011;8825;48.086;16.426;2022-12-18T02:40:33;12.85;;;11.45;;
17414;SDS011;8825;48.086;16.426;2022-12-18T02:43:09;15.38;;;11.55;;
17414;SDS011;8825;48.086;16.426;2022-12-18T02:45:52;12.98;;;10.65;;
17414;SDS011;8825;48.086;16.426;2022-12-18T02:48:27;15.40;;;12.20;;
17414;SDS011;8825;48.086;16.426;2022-12-18T02:50:54;16.35;;;12.35;;
17414;SDS011;8825;48.086;16.426;2022-12-18T02:56:10;14.93;;;12.00;;
17414;SDS011;8825;48.086;16.426;2022-12-18T03:01:36;14.05;;;11.97;;
17414;SDS011;8825;48.086;16.426;2022-12-18T03:04:10;16.10;;;12.82;;
17414;SDS011;8825;48.086;16.426;2022-12-18T03:06:42;16.50;;;12.85;;
17414;SDS011;8825;48.086;16.426;2022-12-18T03:09:14;17.37;;;11.93;;
17414;SDS011;8825;48.086;16.426;2022-12-18T03:11:47;15.53;;;11.70;;
17414;SDS011;8825;48.086;16.426;2022-12-18T03:14:34;13.75;;;11.35;;
17414;SDS011;8825;48.086;16.426;2022-12-18T03:17:05;15.90;;;12.75;;
17414;SDS011;8825;48.086;16.426;2022-12-18T03:19:35;16.42;;;12.35;;
17414;SDS011;8825;48.086;16.426;2022-12-18T03:22:05;16.27;;;12.47;;
17414;SDS011;8825;48.086;16.426;2022-12-18T03:24:34;16.52;;;11.78;;
17414;SDS011;8825;48.086;16.426;2022-12-18T03:27:06;14.13;;;11.33;;
17414;SDS011;8825;48.086;16.426;2022-12-18T03:29:37;16.75;;;13.32;;
17414;SDS011;8825;48.086;16.426;2022-12-18T03:32:10;15.60;;;12.33;;
17414;SDS011;8825;48.086;16.426;2022-12-18T03:37:28;18.07;;;13.03;;
17414;SDS011;8825;48.086;16.426;2022-12-18T03:39:56;16.73;;;12.15;;
17414;SDS011;8825;48.086;16.426;2022-12-18T03:43:07;16.60;;;12.55;;
17414;SDS011;8825;48.086;16.426;2022-12-18T03:47:58;17.07;;;11.78;;
17414;SDS011;8825;48.086;16.426;2022-12-18T03:50:40;15.23;;;11.93;;
17414;SDS011;8825;48.086;16.426;2022-12-18T03:55:47;16.75;;;12.75;;
17414;SDS011;8825;48.086;16.426;2022-12-18T03:58:17;16.20;;;12.10;;
17414;SDS011;8825;48.086;16.426;2022-12-18T04:00:48;15.90;;;12.75;;
17414;SDS011;8825;48.086;16.426;2022-12-18T04:03:18;14.98;;;11.63;;
17414;SDS011;8825;48.086;16.426;2022-12-18T04:05:48;15.43;;;12.50;;
17414;SDS011;8825;48.086;16.426;2022-12-18T04:08:17;14.68;;;11.88;;
17414;SDS011;8825;48.086;16.426;2022-12-18T04:10:46;17.92;;;12.88;;
17414;SDS011;8825;48.086;16.426;2022-12-18T04:13:21;16.75;;;13.08;;
17414;SDS011;8825;48.086;16.426;2022-12-18T04:15:50;19.27;;;14.07;;
17414;SDS011;8825;48.086;16.426;2022-12-18T04:18:18;16.10;;;12.85;;
17414;SDS011;8825;48.086;16.426;2022-12-18T04:20:46;16.00;;;12.58;;
17414;SDS011;8825;48.086;16.426;2022-12-18T04:23:13;17.00;;;12.95;;
17414;SDS011;8825;48.086;16.426;2022-12-18T04:25:41;18.30;;;13.98;;
17414;SDS011;8825;48.086;16.426;2022-12-18T04:28:08;15.53;;;12.55;;
17414;SDS011;8825;48.086;16.426;2022-12-18T04:30:36;15.95;;;12.98;;
17414;SDS011;8825;48.086;16.426;2022-12-18T04:33:03;16.17;;;12.88;;
17414;SDS011;8825;48.086;16.426;2022-12-18T04:35:32;14.15;;;11.90;;
17414;SDS011;8825;48.086;16.426;2022-12-18T04:38:00;16.20;;;12.82;;
17414;SDS011;8825;48.086;16.426;2022-12-18T04:40:28;17.27;;;13.62;;
17414;SDS011;8825;48.086;16.426;2022-12-18T04:42:55;15.68;;;12.88;;
17414;SDS011;8825;48.086;16.426;2022-12-18T04:45:23;17.48;;;13.38;;
17414;SDS011;8825;48.086;16.426;2022-12-18T04:47:50;17.42;;;12.95;;
17414;SDS011;8825;48.086;16.426;2022-12-18T04:50:18;22.02;;;16.15;;
17414;SDS011;8825;48.086;16.426;2022-12-18T04:52:45;22.15;;;17.17;;
17414;SDS011;8825;48.086;16.426;2022-12-18T04:55:13;23.35;;;17.95;;
17414;SDS011;8825;48.086;16.426;2022-12-18T04:57:40;19.92;;;15.90;;
17414;SDS011;8825;48.086;16.426;2022-12-18T05:00:08;17.23;;;13.93;;
17414;SDS011;8825;48.086;16.426;2022-12-18T05:02:36;17.00;;;13.95;;
17414;SDS011;8825;48.086;16.426;2022-12-18T05:05:04;18.32;;;14.78;;
17414;SDS011;8825;48.086;16.426;2022-12-18T05:07:33;17.25;;;13.18;;
17414;SDS011;8825;48.086;16.426;2022-12-18T05:10:00;19.90;;;14.15;;
17414;SDS011;8825;48.086;16.426;2022-12-18T05:12:28;17.87;;;13.90;;
17414;SDS011;8825;48.086;16.426;2022-12-18T05:14:57;18.70;;;15.08;;
17414;SDS011;8825;48.086;16.426;2022-12-18T05:17:24;17.25;;;13.22;;
17414;SDS011;8825;48.086;16.426;2022-12-18T05:19:52;17.85;;;14.07;;
17414;SDS011;8825;48.086;16.426;2022-12-18T05:22:19;16.90;;;13.28;;
17414;SDS011;8825;48.086;16.426;2022-12-18T05:24:47;17.35;;;14.70;;
17414;SDS011;8825;48.086;16.426;2022-12-18T05:27:14;18.00;;;13.58;;
17414;SDS011;8825;48.086;16.426;2022-12-18T05:29:42;19.55;;;14.33;;
17414;SDS011;8825;48.086;16.426;2022-12-18T05:32:09;16.95;;;13.00;;
17414;SDS011;8825;48.086;16.426;2022-12-18T05:34:37;16.62;;;13.22;;
17414;SDS011;8825;48.086;16.426;2022-12-18T05:37:04;16.77;;;13.25;;
17414;SDS011;8825;48.086;16.426;2022-12-18T05:39:32;18.15;;;13.25;;
17414;SDS011;8825;48.086;16.426;2022-12-18T05:41:59;17.30;;;14.03;;
17414;SDS011;8825;48.086;16.426;2022-12-18T05:44:27;20.72;;;15.75;;
17414;SDS011;8825;48.086;16.426;2022-12-18T05:46:54;23.57;;;17.87;;
17414;SDS011;8825;48.086;16.426;2022-12-18T05:49:22;21.45;;;16.48;;
17414;SDS011;8825;48.086;16.426;2022-12-18T05:51:49;21.37;;;16.15;;
17414;SDS011;8825;48.086;16.426;2022-12-18T05:54:17;22.65;;;16.50;;
17414;SDS011;8825;48.086;16.426;2022-12-18T05:56:44;24.37;;;17.65;;
17414;SDS011;8825;48.086;16.426;2022-12-18T05:59:12;24.45;;;17.23;;
17414;SDS011;8825;48.086;16.426;2022-12-18T06:01:40;23.07;;;16.93;;
17414;SDS011;8825;48.086;16.426;2022-12-18T06:04:08;29.60;;;20.25;;
17414;SDS011;8825;48.086;16.426;2022-12-18T06:06:36;26.27;;;19.95;;
17414;SDS011;8825;48.086;16.426;2022-12-18T06:09:04;30.08;;;20.45;;
17414;SDS011;8825;48.086;16.426;2022-12-18T06:11:36;28.10;;;20.10;;
17414;SDS011;8825;48.086;16.426;2022-12-18T06:14:04;23.18;;;17.85;;
17414;SDS011;8825;48.086;16.426;2022-12-18T06:16:32;24.30;;;18.57;;
17414;SDS011;8825;48.086;16.426;2022-12-18T06:19:00;22.48;;;16.57;;
17414;SDS011;8825;48.086;16.426;2022-12-18T06:21:29;22.02;;;16.95;;
17414;SDS011;8825;48.086;16.426;2022-12-18T06:23:58;22.17;;;16.30;;
17414;SDS011;8825;48.086;16.426;2022-12-18T06:26:27;24.12;;;17.52;;
17414;SDS011;8825;48.086;16.426;2022-12-18T06:28:54;25.95;;;19.15;;
17414;SDS011;8825;48.086;16.426;2022-12-18T06:31:22;22.40;;;16.07;;
17414;SDS011;8825;48.086;16.426;2022-12-18T06:33:49;22.60;;;16.27;;
17414;SDS011;8825;48.086;16.426;2022-12-18T06:36:17;21.50;;;15.23;;
17414;SDS011;8825;48.086;16.426;2022-12-18T06:38:45;23.47;;;17.32;;
17414;SDS011;8825;48.086;16.426;2022-12-18T06:41:14;21.05;;;15.55;;
17414;SDS011;8825;48.086;16.426;2022-12-18T06:43:43;22.58;;;16.85;;
17414;SDS011;8825;48.086;16.426;2022-12-18T06:46:11;23.67;;;16.87;;
17414;SDS011;8825;48.086;16.426;2022-12-18T06:48:39;23.45;;;17.48;;
17414;SDS011;8825;48.086;16.426;2022-12-18T06:51:07;20.92;;;17.37;;
17414;SDS011;8825;48.086;16.426;2022-12-18T06:53:34;21.70;;;18.02;;
17414;SDS011;8825;48.086;16.426;2022-12-18T06:56:03;26.00;;;20.08;;
17414;SDS011;8825;48.086;16.426;2022-12-18T06:58:32;24.25;;;18.15;;
17414;SDS011;8825;48.086;16.426;2022-12-18T07:01:01;23.62;;;18.02;;
17414;SDS011;8825;48.086;16.426;2022-12-18T07:03:29;22.60;;;17.80;;
17414;SDS011;8825;48.086;16.426;2022-12-18T07:06:19;25.82;;;19.92;;
17414;SDS011;8825;48.086;16.426;2022-12-18T07:08:49;30.80;;;23.52;;
17414;SDS011;8825;48.086;16.426;2022-12-18T07:11:18;30.68;;;23.25;;
17414;SDS011;8825;48.086;16.426;2022-12-18T07:13:46;38.78;;;27.10;;
17414;SDS011;8825;48.086;16.426;2022-12-18T07:16:15;39.20;;;27.60;;
17414;SDS011;8825;48.086;16.426;2022-12-18T07:18:44;40.00;;;27.90;;
17414;SDS011;8825;48.086;16.426;2022-12-18T07:21:13;49.80;;;34.55;;
17414;SDS011;8825;48.086;16.426;2022-12-18T07:23:42;49.85;;;34.18;;
17414;SDS011;8825;48.086;16.426;2022-12-18T07:26:12;59.73;;;38.02;;
17414;SDS011;8825;48.086;16.426;2022-12-18T07:28:40;55.03;;;34.67;;
17414;SDS011;8825;48.086;16.426;2022-12-18T07:31:10;44.40;;;28.92;;
17414;SDS011;8825;48.086;16.426;2022-12-18T07:33:39;37.25;;;25.45;;
17414;SDS011;8825;48.086;16.426;2022-12-18T07:36:07;34.05;;;23.25;;
17414;SDS011;8825;48.086;16.426;2022-12-18T07:38:36;38.40;;;26.05;;
17414;SDS011;8825;48.086;16.426;2022-12-18T07:41:05;33.95;;;23.67;;
17414;SDS011;8825;48.086;16.426;2022-12-18T07:43:34;30.77;;;21.85;;
17414;SDS011;8825;48.086;16.426;2022-12-18T07:46:02;27.22;;;18.60;;
17414;SDS011;8825;48.086;16.426;2022-12-18T07:48:30;23.62;;;18.12;;
17414;SDS011;8825;48.086;16.426;2022-12-18T07:51:01;21.95;;;16.62;;
17414;SDS011;8825;48.086;16.426;2022-12-18T07:53:30;23.75;;;18.40;;
17414;SDS011;8825;48.086;16.426;2022-12-18T07:55:59;24.02;;;17.07;;
17414;SDS011;8825;48.086;16.426;2022-12-18T07:58:28;20.30;;;16.82;;
17414;SDS011;8825;48.086;16.426;2022-12-18T08:03:35;21.77;;;16.67;;
17414;SDS011;8825;48.086;16.426;2022-12-18T08:06:04;23.47;;;16.73;;
17414;SDS011;8825;48.086;16.426;2022-12-18T08:08:34;22.37;;;17.82;;
17414;SDS011;8825;48.086;16.426;2022-12-18T08:11:02;22.60;;;17.30;;
17414;SDS011;8825;48.086;16.426;2022-12-18T08:13:30;21.30;;;15.80;;
17414;SDS011;8825;48.086;16.426;2022-12-18T08:15:59;19.75;;;15.72;;
17414;SDS011;8825;48.086;16.426;2022-12-18T08:18:36;21.30;;;16.05;;
17414;SDS011;8825;48.086;16.426;2022-12-18T08:21:10;22.82;;;18.27;;
17414;SDS011;8825;48.086;16.426;2022-12-18T08:23:39;21.50;;;17.65;;
17414;SDS011;8825;48.086;16.426;2022-12-18T08:26:06;18.40;;;15.10;;
17414;SDS011;8825;48.086;16.426;2022-12-18T08:28:34;19.95;;;15.85;;
17414;SDS011;8825;48.086;16.426;2022-12-18T08:31:02;22.60;;;17.75;;
17414;SDS011;8825;48.086;16.426;2022-12-18T08:33:30;20.62;;;15.65;;
17414;SDS011;8825;48.086;16.426;2022-12-18T08:35:58;20.65;;;15.28;;
17414;SDS011;8825;48.086;16.426;2022-12-18T08:38:26;21.93;;;16.97;;
17414;SDS011;8825;48.086;16.426;2022-12-18T08:43:30;20.35;;;16.30;;
17414;SDS011;8825;48.086;16.426;2022-12-18T08:46:22;18.37;;;15.53;;
17414;SDS011;8825;48.086;16.426;2022-12-18T08:48:46;17.32;;;14.50;;
17414;SDS011;8825;48.086;16.426;2022-12-18T08:51:18;18.32;;;15.00;;
17414;SDS011;8825;48.086;16.426;2022-12-18T08:53:43;18.90;;;14.60;;
17414;SDS011;8825;48.086;16.426;2022-12-18T08:56:12;18.92;;;14.60;;
17414;SDS011;8825;48.086;16.426;2022-12-18T08:58:40;16.10;;;14.33;;
17414;SDS011;8825;48.086;16.426;2022-12-18T09:01:09;23.45;;;18.50;;
17414;SDS011;8825;48.086;16.426;2022-12-18T09:03:38;22.27;;;18.27;;
17414;SDS011;8825;48.086;16.426;2022-12-18T09:06:05;20.08;;;17.05;;
17414;SDS011;8825;48.086;16.426;2022-12-18T09:08:33;22.25;;;17.32;;
17414;SDS011;8825;48.086;16.426;2022-12-18T09:11:02;23.90;;;18.82;;
17414;SDS011;8825;48.086;16.426;2022-12-18T09:13:29;20.52;;;17.15;;
17414;SDS011;8825;48.086;16.426;2022-12-18T09:15:57;21.68;;;17.52;;
17414;SDS011;8825;48.086;16.426;2022-12-18T09:18:25;18.90;;;16.17;;
17414;SDS011;8825;48.086;16.426;2022-12-18T09:20:52;20.10;;;16.60;;
17414;SDS011;8825;48.086;16.426;2022-12-18T09:23:20;19.77;;;17.07;;
17414;SDS011;8825;48.086;16.426;2022-12-18T09:25:48;21.02;;;18.40;;
17414;SDS011;8825;48.086;16.426;2022-12-18T09:28:16;21.52;;;17.45;;
17414;SDS011;8825;48.086;16.426;2022-12-18T09:30:46;21.90;;;17.82;;
17414;SDS011;8825;48.086;16.426;2022-12-18T09:33:15;23.40;;;18.45;;
17414;SDS011;8825;48.086;16.426;2022-12-18T09:35:44;22.95;;;18.32;;
17414;SDS011;8825;48.086;16.426;2022-12-18T09:38:14;23.35;;;17.75;;
17414;SDS011;8825;48.086;16.426;2022-12-18T09:40:50;26.42;;;18.70;;
17414;SDS011;8825;48.086;16.426;2022-12-18T09:43:23;23.85;;;18.05;;
17414;SDS011;8825;48.086;16.426;2022-12-18T09:45:54;24.45;;;19.23;;
17414;SDS011;8825;48.086;16.426;2022-12-18T09:48:24;26.33;;;20.48;;
17414;SDS011;8825;48.086;16.426;2022-12-18T09:50:55;29.07;;;20.15;;
17414;SDS011;8825;48.086;16.426;2022-12-18T09:53:24;28.77;;;20.77;;
17414;SDS011;8825;48.086;16.426;2022-12-18T09:55:55;26.35;;;20.08;;
17414;SDS011;8825;48.086;16.426;2022-12-18T09:58:28;25.35;;;20.17;;
17414;SDS011;8825;48.086;16.426;2022-12-18T10:01:00;27.48;;;20.08;;
17414;SDS011;8825;48.086;16.426;2022-12-18T10:03:27;24.07;;;19.07;;
17414;SDS011;8825;48.086;16.426;2022-12-18T10:11:37;30.35;;;22.22;;
17414;SDS011;8825;48.086;16.426;2022-12-18T10:14:19;25.95;;;19.02;;
17414;SDS011;8825;48.086;16.426;2022-12-18T10:16:53;25.50;;;19.42;;
17414;SDS011;8825;48.086;16.426;2022-12-18T10:27:27;29.40;;;21.65;;
17414;SDS011;8825;48.086;16.426;2022-12-18T10:29:57;28.50;;;20.37;;
17414;SDS011;8825;48.086;16.426;2022-12-18T10:32:26;29.12;;;21.62;;
17414;SDS011;8825;48.086;16.426;2022-12-18T10:34:56;29.23;;;21.10;;
17414;SDS011;8825;48.086;16.426;2022-12-18T10:37:25;24.87;;;18.90;;
17414;SDS011;8825;48.086;16.426;2022-12-18T10:40:11;29.45;;;21.02;;
17414;SDS011;8825;48.086;16.426;2022-12-18T10:42:41;26.93;;;21.00;;
17414;SDS011;8825;48.086;16.426;2022-12-18T10:45:16;26.65;;;21.07;;
17414;SDS011;8825;48.086;16.426;2022-12-18T10:47:49;26.52;;;20.62;;
17414;SDS011;8825;48.086;16.426;2022-12-18T10:50:24;28.17;;;20.57;;
17414;SDS011;8825;48.086;16.426;2022-12-18T10:52:58;26.97;;;20.40;;
17414;SDS011;8825;48.086;16.426;2022-12-18T10:55:37;26.87;;;19.85;;
17414;SDS011;8825;48.086;16.426;2022-12-18T10:58:24;30.15;;;21.33;;
17414;SDS011;8825;48.086;16.426;2022-12-18T11:03:37;29.67;;;21.55;;
17414;SDS011;8825;48.086;16.426;2022-12-18T11:08:40;37.48;;;22.93;;
17414;SDS011;8825;48.086;16.426;2022-12-18T11:11:47;35.48;;;24.47;;
17414;SDS011;8825;48.086;16.426;2022-12-18T11:13:51;33.70;;;23.07;;
17414;SDS011;8825;48.086;16.426;2022-12-18T11:16:36;32.90;;;24.15;;
17414;SDS011;8825;48.086;16.426;2022-12-18T11:19:32;29.45;;;22.22;;
17414;SDS011;8825;48.086;16.426;2022-12-18T11:22:01;30.12;;;22.25;;
17414;SDS011;8825;48.086;16.426;2022-12-18T11:24:37;28.95;;;21.45;;
17414;SDS011;8825;48.086;16.426;2022-12-18T11:27:15;28.90;;;22.00;;
17414;SDS011;8825;48.086;16.426;2022-12-18T11:29:40;30.30;;;23.42;;
17414;SDS011;8825;48.086;16.426;2022-12-18T11:35:17;28.60;;;21.57;;
17414;SDS011;8825;48.086;16.426;2022-12-18T11:37:28;30.30;;;22.30;;
17414;SDS011;8825;48.086;16.426;2022-12-18T11:39:57;32.53;;;23.52;;
17414;SDS011;8825;48.086;16.426;2022-12-18T11:42:35;28.85;;;21.80;;
17414;SDS011;8825;48.086;16.426;2022-12-18T11:50:32;29.18;;;22.17;;
17414;SDS011;8825;48.086;16.426;2022-12-18T11:53:00;28.83;;;21.35;;
17414;SDS011;8825;48.086;16.426;2022-12-18T11:55:36;28.32;;;22.10;;
17414;SDS011;8825;48.086;16.426;2022-12-18T12:00:32;30.37;;;22.15;;
17414;SDS011;8825;48.086;16.426;2022-12-18T12:09:07;32.70;;;23.15;;
17414;SDS011;8825;48.086;16.426;2022-12-18T12:30:24;33.90;;;25.48;;
17414;SDS011;8825;48.086;16.426;2022-12-18T12:33:18;35.58;;;26.05;;
17414;SDS011;8825;48.086;16.426;2022-12-18T12:35:52;33.02;;;24.98;;
17414;SDS011;8825;48.086;16.426;2022-12-18T12:38:36;31.70;;;23.70;;
17414;SDS011;8825;48.086;16.426;2022-12-18T12:41:06;34.45;;;24.82;;
17414;SDS011;8825;48.086;16.426;2022-12-18T12:43:38;35.13;;;25.45;;
17414;SDS011;8825;48.086;16.426;2022-12-18T12:46:09;34.23;;;26.07;;
17414;SDS011;8825;48.086;16.426;2022-12-18T12:48:48;34.10;;;25.45;;
17414;SDS011;8825;48.086;16.426;2022-12-18T12:51:19;35.30;;;27.00;;
17414;SDS011;8825;48.086;16.426;2022-12-18T12:54:01;39.75;;;27.37;;
17414;SDS011;8825;48.086;16.426;2022-12-18T12:57:08;33.42;;;24.87;;
17414;SDS011;8825;48.086;16.426;2022-12-18T12:59:16;34.98;;;26.25;;
17414;SDS011;8825;48.086;16.426;2022-12-18T13:04:49;37.23;;;27.52;;
17414;SDS011;8825;48.086;16.426;2022-12-18T13:07:32;36.70;;;26.25;;
17414;SDS011;8825;48.086;16.426;2022-12-18T13:10:22;33.90;;;25.85;;
17414;SDS011;8825;48.086;16.426;2022-12-18T13:12:59;34.08;;;24.18;;
17414;SDS011;8825;48.086;16.426;2022-12-18T13:15:48;34.75;;;23.92;;
17414;SDS011;8825;48.086;16.426;2022-12-18T13:20:50;34.83;;;24.40;;
17414;SDS011;8825;48.086;16.426;2022-12-18T13:25:53;31.85;;;23.47;;
17414;SDS011;8825;48.086;16.426;2022-12-18T13:31:13;34.00;;;26.25;;
17414;SDS011;8825;48.086;16.426;2022-12-18T13:36:40;32.85;;;24.37;;
17414;SDS011;8825;48.086;16.426;2022-12-18T13:39:50;32.08;;;23.05;;
17414;SDS011;8825;48.086;16.426;2022-12-18T13:41:52;32.23;;;24.05;;
17414;SDS011;8825;48.086;16.426;2022-12-18T13:44:31;31.30;;;23.57;;
17414;SDS011;8825;48.086;16.426;2022-12-18T13:47:23;34.65;;;23.98;;
17414;SDS011;8825;48.086;16.426;2022-12-18T13:52:17;32.00;;;21.80;;
17414;SDS011;8825;48.086;16.426;2022-12-18T13:54:54;31.68;;;23.05;;
17414;SDS011;8825;48.086;16.426;2022-12-18T13:57:41;33.67;;;23.92;;
17414;SDS011;8825;48.086;16.426;2022-12-18T14:02:45;32.53;;;24.43;;
17414;SDS011;8825;48.086;16.426;2022-12-18T14:05:35;33.48;;;23.80;;
17414;SDS011;8825;48.086;16.426;2022-12-18T14:07:49;34.67;;;23.65;;
17414;SDS011;8825;48.086;16.426;2022-12-18T14:10:17;37.20;;;25.60;;
17414;SDS011;8825;48.086;16.426;2022-12-18T14:12:46;33.80;;;25.40;;
17414;SDS011;8825;48.086;16.426;2022-12-18T14:15:27;34.63;;;23.98;;
17414;SDS011;8825;48.086;16.426;2022-12-18T14:17:55;37.20;;;25.57;;
17414;SDS011;8825;48.086;16.426;2022-12-18T14:20:26;34.20;;;25.27;;
17414;SDS011;8825;48.086;16.426;2022-12-18T14:22:56;33.92;;;23.42;;
17414;SDS011;8825;48.086;16.426;2022-12-18T14:25:29;33.08;;;24.00;;
17414;SDS011;8825;48.086;16.426;2022-12-18T14:30:44;36.60;;;25.50;;
17414;SDS011;8825;48.086;16.426;2022-12-18T14:33:10;34.63;;;24.98;;
17414;SDS011;8825;48.086;16.426;2022-12-18T14:35:40;35.10;;;23.95;;
17414;SDS011;8825;48.086;16.426;2022-12-18T14:38:11;35.78;;;24.52;;
17414;SDS011;8825;48.086;16.426;2022-12-18T14:40:52;33.48;;;23.52;;
17414;SDS011;8825;48.086;16.426;2022-12-18T14:43:22;38.02;;;25.80;;
17414;SDS011;8825;48.086;16.426;2022-12-18T14:45:49;34.55;;;23.90;;
17414;SDS011;8825;48.086;16.426;2022-12-18T14:48:21;34.48;;;24.80;;
17414;SDS011;8825;48.086;16.426;2022-12-18T14:51:03;35.00;;;25.17;;
17414;SDS011;8825;48.086;16.426;2022-12-18T14:53:35;36.10;;;26.17;;
17414;SDS011;8825;48.086;16.426;2022-12-18T14:56:50;36.93;;;26.05;;
17414;SDS011;8825;48.086;16.426;2022-12-18T14:58:45;37.53;;;25.40;;
17414;SDS011;8825;48.086;16.426;2022-12-18T15:01:21;34.58;;;23.32;;
17414;SDS011;8825;48.086;16.426;2022-12-18T15:03:51;37.25;;;26.40;;
17414;SDS011;8825;48.086;16.426;2022-12-18T15:06:27;37.35;;;27.25;;
17414;SDS011;8825;48.086;16.426;2022-12-18T15:08:56;38.92;;;25.92;;
17414;SDS011;8825;48.086;16.426;2022-12-18T15:11:26;33.88;;;24.95;;
17414;SDS011;8825;48.086;16.426;2022-12-18T15:16:52;36.70;;;24.43;;
17414;SDS011;8825;48.086;16.426;2022-12-18T15:19:21;34.38;;;24.00;;
17414;SDS011;8825;48.086;16.426;2022-12-18T15:21:51;34.45;;;25.15;;
17414;SDS011;8825;48.086;16.426;2022-12-18T15:24:20;33.70;;;25.52;;
17414;SDS011;8825;48.086;16.426;2022-12-18T15:26:49;33.75;;;23.98;;
17414;SDS011;8825;48.086;16.426;2022-12-18T15:29:20;35.92;;;25.20;;
17414;SDS011;8825;48.086;16.426;2022-12-18T15:31:58;33.28;;;24.37;;
17414;SDS011;8825;48.086;16.426;2022-12-18T15:34:27;30.77;;;22.80;;
17414;SDS011;8825;48.086;16.426;2022-12-18T15:36:56;30.62;;;22.98;;
17414;SDS011;8825;48.086;16.426;2022-12-18T15:39:23;34.15;;;23.40;;
17414;SDS011;8825;48.086;16.426;2022-12-18T15:41:51;33.45;;;23.62;;
17414;SDS011;8825;48.086;16.426;2022-12-18T15:44:36;33.13;;;24.15;;
17414;SDS011;8825;48.086;16.426;2022-12-18T15:47:07;32.17;;;23.12;;
17414;SDS011;8825;48.086;16.426;2022-12-18T15:49:35;33.55;;;23.90;;
17414;SDS011;8825;48.086;16.426;2022-12-18T15:52:02;30.85;;;21.40;;
17414;SDS011;8825;48.086;16.426;2022-12-18T15:54:30;30.57;;;22.73;;
17414;SDS011;8825;48.086;16.426;2022-12-18T15:57:16;30.75;;;21.90;;
17414;SDS011;8825;48.086;16.426;2022-12-18T15:59:53;32.20;;;22.42;;
17414;SDS011;8825;48.086;16.426;2022-12-18T16:02:24;34.92;;;24.65;;
17414;SDS011;8825;48.086;16.426;2022-12-18T16:04:53;34.30;;;24.43;;
17414;SDS011;8825;48.086;16.426;2022-12-18T16:07:21;37.10;;;26.27;;
17414;SDS011;8825;48.086;16.426;2022-12-18T16:09:48;35.90;;;24.60;;
17414;SDS011;8825;48.086;16.426;2022-12-18T16:12:17;33.50;;;23.83;;
17414;SDS011;8825;48.086;16.426;2022-12-18T16:14:46;33.67;;;24.02;;
17414;SDS011;8825;48.086;16.426;2022-12-18T16:17:14;33.08;;;23.98;;
17414;SDS011;8825;48.086;16.426;2022-12-18T16:19:42;33.28;;;23.45;;
17414;SDS011;8825;48.086;16.426;2022-12-18T16:22:29;30.72;;;24.43;;
17414;SDS011;8825;48.086;16.426;2022-12-18T16:24:47;32.65;;;23.60;;
17414;SDS011;8825;48.086;16.426;2022-12-18T16:27:14;37.45;;;25.80;;
17414;SDS011;8825;48.086;16.426;2022-12-18T16:29:42;34.00;;;24.05;;
17414;SDS011;8825;48.086;16.426;2022-12-18T16:32:14;33.88;;;23.95;;
17414;SDS011;8825;48.086;16.426;2022-12-18T16:34:43;33.65;;;24.05;;
17414;SDS011;8825;48.086;16.426;2022-12-18T16:37:12;33.13;;;23.12;;